Time;durP1;ratioP1;P1;durP2;ratioP2;P2;SDS_P1;SDS_P2;PMS_P1;PMS_P2;Temp;Humidity;BMP_temperature;BMP_pressure;BME280_temperature;BME280_humidity;BME280_pressure;Samples;Min_cycle;Max_cycle;Signal;HPM_P1;HPM_P2
2021/10/23 00:01:00;;;;;;;4.95;2.22;;;10.00;99.90;;;;;;5021984;28;20100;-59
2021/10/23 00:03:26;;;;;;;3.55;2.47;;;10.00;99.90;;;;;;5021002;28;20049;-59
2021/10/23 00:05:54;;;;;;;4.05;2.00;;;10.00;99.90;;;;;;5037208;28;20081;-59
2021/10/23 00:08:20;;;;;;;6.43;2.75;;;10.00;99.90;;;;;;5020169;28;20544;-59
2021/10/23 00:10:50;;;;;;;4.45;2.20;;;10.00;99.90;;;;;;5020834;28;20049;-58
2021/10/23 00:13:16;;;;;;;3.70;2.38;;;10.00;99.90;;;;;;5018808;28;20134;-59
2021/10/23 00:15:43;;;;;;;3.50;2.00;;;10.00;99.90;;;;;;5020705;28;20132;-59
2021/10/23 00:18:10;;;;;;;5.20;2.22;;;10.10;99.90;;;;;;5003490;28;20346;-59
2021/10/23 00:20:37;;;;;;;6.25;2.60;;;10.00;99.90;;;;;;5021965;28;20133;-59
2021/10/23 00:23:04;;;;;;;3.38;2.13;;;10.00;99.90;;;;;;5020378;28;20057;-59
2021/10/23 00:25:33;;;;;;;6.35;2.25;;;10.00;99.90;;;;;;5021514;28;20077;-59
2021/10/23 00:28:00;;;;;;;7.03;2.47;;;10.00;99.90;;;;;;5021149;28;20527;-59
2021/10/23 00:30:27;;;;;;;3.20;1.70;;;10.00;99.90;;;;;;5021225;28;20045;-59
2021/10/23 00:32:56;;;;;;;3.33;1.90;;;10.00;99.90;;;;;;5020952;28;20073;-59
2021/10/23 00:35:23;;;;;;;7.28;2.40;;;10.00;99.90;;;;;;5020316;28;20545;-59
2021/10/23 00:37:50;;;;;;;3.45;2.00;;;10.00;99.90;;;;;;5024255;28;20505;-60
2021/10/23 00:40:17;;;;;;;4.03;2.00;;;9.90;99.90;;;;;;5024235;28;20076;-59
2021/10/23 00:42:43;;;;;;;4.32;2.10;;;10.00;99.90;;;;;;5024028;28;20080;-59
2021/10/23 00:45:10;;;;;;;3.47;2.10;;;9.90;99.90;;;;;;5023953;28;20119;-59
2021/10/23 00:47:37;;;;;;;4.28;2.45;;;10.00;99.90;;;;;;5023559;28;20087;-60
2021/10/23 00:50:04;;;;;;;5.43;2.00;;;10.00;99.90;;;;;;5024112;28;20416;-60
2021/10/23 00:52:31;;;;;;;3.85;2.08;;;10.00;99.90;;;;;;5024197;28;20132;-59
2021/10/23 00:54:58;;;;;;;7.90;2.35;;;10.00;99.90;;;;;;5007095;28;20088;-59
2021/10/23 00:57:25;;;;;;;2.63;1.88;;;9.90;99.90;;;;;;5022898;28;20081;-59
2021/10/23 00:59:51;;;;;;;5.38;2.35;;;9.90;99.90;;;;;;5020288;28;20107;-59
2021/10/23 01:02:18;;;;;;;3.95;2.20;;;9.90;99.90;;;;;;5019008;28;20073;-59
2021/10/23 01:04:45;;;;;;;3.75;1.77;;;9.90;99.90;;;;;;5020884;28;20087;-59
2021/10/23 01:07:12;;;;;;;3.80;2.38;;;9.90;99.90;;;;;;5005192;28;20160;-59
2021/10/23 01:09:39;;;;;;;3.22;1.50;;;9.80;99.90;;;;;;5025186;28;20132;-59
2021/10/23 01:12:07;;;;;;;3.15;1.63;;;9.80;99.90;;;;;;5023159;28;20089;-59
2021/10/23 01:14:40;;;;;;;3.63;1.30;;;9.80;99.90;;;;;;5022590;28;20493;-59
2021/10/23 01:17:07;;;;;;;3.53;1.77;;;9.70;99.90;;;;;;5024485;28;20110;-59
2021/10/23 01:19:34;;;;;;;4.28;1.83;;;9.70;99.90;;;;;;5023710;28;20053;-58
2021/10/23 01:22:01;;;;;;;2.50;1.73;;;9.70;99.90;;;;;;5024871;28;20119;-59
2021/10/23 01:24:28;;;;;;;3.80;1.75;;;9.70;99.90;;;;;;5024754;28;20146;-59
2021/10/23 01:26:55;;;;;;;3.90;1.70;;;9.70;99.90;;;;;;5023436;28;20137;-58
2021/10/23 01:29:22;;;;;;;5.45;2.13;;;9.70;99.90;;;;;;5022620;28;20553;-59
2021/10/23 01:31:50;;;;;;;2.65;2.05;;;9.70;99.90;;;;;;5023947;28;20053;-59
2021/10/23 01:34:25;;;;;;;4.35;1.90;;;9.60;99.90;;;;;;5026881;28;20582;-59
2021/10/23 01:36:53;;;;;;;2.75;1.35;;;9.70;99.90;;;;;;5026597;28;20092;-59
2021/10/23 01:39:21;;;;;;;7.47;1.90;;;9.70;99.90;;;;;;5026839;28;20133;-58
2021/10/23 01:41:47;;;;;;;4.13;1.65;;;9.70;99.90;;;;;;5026068;28;20132;-59
2021/10/23 01:44:17;;;;;;;3.83;1.92;;;9.60;99.90;;;;;;5007849;28;20132;-58
2021/10/23 01:46:44;;;;;;;5.50;2.03;;;9.60;99.90;;;;;;5025603;28;20077;-59
2021/10/23 01:49:11;;;;;;;4.47;1.88;;;9.70;99.90;;;;;;5025008;28;20663;-59
2021/10/23 01:51:38;;;;;;;5.82;1.58;;;9.70;99.90;;;;;;5041738;28;20411;-58
2021/10/23 01:54:06;;;;;;;6.22;1.63;;;9.70;99.90;;;;;;5026143;28;20658;-59
2021/10/23 01:56:37;;;;;;;3.65;1.55;;;9.70;99.90;;;;;;5008897;28;20049;-59
2021/10/23 01:59:04;;;;;;;2.63;1.65;;;9.70;99.90;;;;;;5025257;28;20135;-59
2021/10/23 02:01:30;;;;;;;3.72;1.77;;;9.70;99.90;;;;;;5025779;28;20117;-59
2021/10/23 02:03:57;;;;;;;4.88;1.70;;;9.70;99.90;;;;;;5025325;28;20076;-59
2021/10/23 02:06:24;;;;;;;7.43;2.00;;;9.70;99.90;;;;;;5024765;28;20521;-59
2021/10/23 02:08:51;;;;;;;2.67;1.50;;;9.70;99.90;;;;;;5025828;28;20088;-59
2021/10/23 02:11:18;;;;;;;3.40;2.10;;;9.60;99.90;;;;;;5024839;28;20060;-59
2021/10/23 02:13:45;;;;;;;4.30;1.70;;;9.70;99.90;;;;;;5024909;28;20196;-59
2021/10/23 02:16:12;;;;;;;4.00;2.35;;;9.70;99.90;;;;;;5025635;28;20081;-59
2021/10/23 02:18:38;;;;;;;5.85;2.03;;;9.70;99.90;;;;;;5024358;28;20049;-59
2021/10/23 02:21:07;;;;;;;3.97;1.92;;;9.70;99.90;;;;;;5025841;28;20385;-59
2021/10/23 02:23:34;;;;;;;3.35;1.50;;;9.80;99.90;;;;;;5025223;28;20080;-59
2021/10/23 02:26:01;;;;;;;3.85;1.85;;;9.70;99.90;;;;;;5041203;28;20084;-59
2021/10/23 02:28:28;;;;;;;4.07;2.25;;;9.80;99.90;;;;;;5024655;28;20160;-59
2021/10/23 02:30:55;;;;;;;3.97;1.85;;;9.80;99.90;;;;;;5025934;28;20115;-59
2021/10/23 02:33:22;;;;;;;5.90;1.63;;;9.80;99.90;;;;;;5024403;28;20563;-59
2021/10/23 02:35:49;;;;;;;2.65;1.98;;;9.80;99.90;;;;;;5025370;28;20080;-58
2021/10/23 02:38:16;;;;;;;3.45;1.50;;;9.80;99.90;;;;;;5024838;28;20041;-59
2021/10/23 02:40:42;;;;;;;6.72;2.42;;;9.80;99.90;;;;;;5024235;28;20053;-59
2021/10/23 02:43:09;;;;;;;5.53;1.67;;;9.90;99.90;;;;;;5023275;28;20076;-58
2021/10/23 02:45:36;;;;;;;4.18;1.83;;;9.90;99.90;;;;;;5024655;28;20137;-59
2021/10/23 02:48:03;;;;;;;4.40;1.75;;;9.90;99.90;;;;;;5024381;28;20041;-59
2021/10/23 02:50:30;;;;;;;4.07;2.42;;;9.90;99.90;;;;;;5026159;28;20557;-59
2021/10/23 02:52:57;;;;;;;3.75;1.83;;;9.90;99.90;;;;;;5026383;28;20128;-59
2021/10/23 02:55:24;;;;;;;3.22;1.90;;;10.00;99.90;;;;;;5026164;28;20125;-59
2021/10/23 02:57:50;;;;;;;4.43;2.10;;;9.90;99.90;;;;;;5024942;28;20081;-58
2021/10/23 03:00:17;;;;;;;5.95;2.42;;;10.00;99.90;;;;;;5025202;28;20127;-59
2021/10/23 03:02:45;;;;;;;4.65;2.20;;;9.90;99.90;;;;;;5024818;28;20136;-58
2021/10/23 03:05:12;;;;;;;5.30;2.80;;;10.00;99.90;;;;;;5032189;28;20452;-59
2021/10/23 03:07:39;;;;;;;7.03;3.17;;;10.00;99.90;;;;;;5035552;28;20073;-59
2021/10/23 03:10:06;;;;;;;7.35;2.92;;;10.00;99.70;;;;;;5026351;28;20076;-59
2021/10/23 03:12:33;;;;;;;10.43;3.17;;;10.00;99.80;;;;;;5041174;28;20061;-59
2021/10/23 03:15:00;;;;;;;3.58;2.42;;;10.00;99.90;;;;;;5024735;28;20132;-59
2021/10/23 03:17:31;;;;;;;4.07;2.63;;;10.10;99.90;;;;;;5025218;28;20073;-59
2021/10/23 03:19:58;;;;;;;4.53;2.38;;;10.00;99.90;;;;;;5025879;28;20045;-59
2021/10/23 03:22:25;;;;;;;5.05;2.85;;;10.00;99.90;;;;;;5025552;28;20136;-59
2021/10/23 03:24:52;;;;;;;6.43;3.08;;;10.00;99.90;;;;;;5025653;28;20544;-59
2021/10/23 03:27:22;;;;;;;4.32;2.90;;;10.00;99.90;;;;;;5025906;28;20073;-58
2021/10/23 03:29:49;;;;;;;6.57;2.92;;;10.00;99.90;;;;;;5023835;28;20077;-59
2021/10/23 03:32:16;;;;;;;6.57;3.08;;;10.00;99.90;;;;;;5025267;28;20114;-59
2021/10/23 03:34:43;;;;;;;5.50;3.08;;;10.00;99.90;;;;;;5025144;28;20528;-59
2021/10/23 03:37:10;;;;;;;5.00;3.00;;;10.00;99.90;;;;;;5025339;28;20160;-59
2021/10/23 03:39:38;;;;;;;10.15;3.47;;;10.00;99.90;;;;;;5025992;28;20944;-59
2021/10/23 03:42:05;;;;;;;3.88;2.67;;;10.00;99.90;;;;;;5025710;28;20049;-59
2021/10/23 03:44:33;;;;;;;5.20;2.95;;;10.00;99.90;;;;;;5024175;28;20041;-58
2021/10/23 03:47:02;;;;;;;4.30;2.55;;;10.00;99.90;;;;;;5025120;28;20128;-59
2021/10/23 03:49:29;;;;;;;5.80;2.40;;;9.90;99.90;;;;;;5025680;28;20504;-59
2021/10/23 03:51:56;;;;;;;4.45;2.55;;;10.00;99.90;;;;;;5040478;28;20057;-58
2021/10/23 03:54:23;;;;;;;5.32;2.40;;;10.00;99.90;;;;;;5024063;28;20132;-59
2021/10/23 03:56:50;;;;;;;10.95;4.18;;;10.00;99.90;;;;;;5025442;28;20083;-58
2021/10/23 03:59:19;;;;;;;4.90;2.40;;;10.00;99.90;;;;;;5024288;28;20085;-59
2021/10/23 04:01:46;;;;;;;7.40;2.75;;;10.00;99.90;;;;;;4989007;28;20516;-59
2021/10/23 04:04:13;;;;;;;8.20;2.88;;;10.00;99.90;;;;;;5008141;28;20053;-59
2021/10/23 04:06:40;;;;;;;10.65;2.47;;;10.00;99.90;;;;;;5022912;28;20061;-59
2021/10/23 04:09:07;;;;;;;5.95;3.15;;;10.00;99.90;;;;;;5023222;28;20072;-59
2021/10/23 04:11:34;;;;;;;3.97;2.15;;;10.00;99.90;;;;;;5023008;28;20119;-59
2021/10/23 04:14:01;;;;;;;3.15;1.90;;;10.00;99.90;;;;;;5022337;28;21537;-59
2021/10/23 04:16:31;;;;;;;4.88;2.20;;;10.00;99.90;;;;;;5021568;28;20060;-58
2021/10/23 04:19:00;;;;;;;5.78;2.25;;;10.00;99.90;;;;;;5022567;28;20152;-59
2021/10/23 04:21:27;;;;;;;5.10;1.88;;;10.00;99.90;;;;;;5022995;28;20084;-59
2021/10/23 04:23:54;;;;;;;4.38;2.05;;;10.00;99.90;;;;;;5021465;28;20156;-58
2021/10/23 04:26:20;;;;;;;6.00;2.33;;;10.00;99.90;;;;;;5023248;28;20137;-59
2021/10/23 04:28:47;;;;;;;5.25;1.90;;;10.00;99.90;;;;;;5021515;28;20055;-58
2021/10/23 04:31:17;;;;;;;5.15;2.42;;;10.00;99.90;;;;;;5023309;28;20128;-59
2021/10/23 04:33:44;;;;;;;5.20;1.92;;;10.00;99.90;;;;;;5021247;28;20054;-59
2021/10/23 04:36:11;;;;;;;3.67;1.90;;;10.00;99.90;;;;;;5022750;28;20073;-59
2021/10/23 04:38:37;;;;;;;2.72;1.83;;;10.00;99.90;;;;;;5022678;28;20053;-58
2021/10/23 04:41:04;;;;;;;7.05;2.53;;;10.00;99.90;;;;;;5022688;28;20417;-58
2021/10/23 04:43:31;;;;;;;3.30;1.65;;;10.00;99.90;;;;;;5036134;28;20173;-58
2021/10/23 04:45:58;;;;;;;4.40;1.70;;;10.00;99.90;;;;;;5023239;28;20115;-58
2021/10/23 04:48:25;;;;;;;6.15;1.70;;;10.00;99.90;;;;;;5021895;28;20049;-59
2021/10/23 04:50:51;;;;;;;4.20;2.00;;;10.00;99.90;;;;;;5021947;28;20171;-58
2021/10/23 04:53:21;;;;;;;4.28;2.20;;;10.00;99.90;;;;;;5022051;28;20224;-58
2021/10/23 04:55:47;;;;;;;5.15;2.00;;;10.00;99.90;;;;;;5022426;28;20241;-58
2021/10/23 04:58:14;;;;;;;4.95;1.70;;;10.00;99.90;;;;;;5020001;28;20073;-58
2021/10/23 05:00:41;;;;;;;5.10;1.67;;;10.00;99.90;;;;;;5022343;28;20087;-58
2021/10/23 05:03:07;;;;;;;6.40;1.77;;;10.00;99.90;;;;;;5019039;28;20508;-59
2021/10/23 05:05:35;;;;;;;6.80;1.80;;;10.00;99.90;;;;;;5020248;28;20156;-58
2021/10/23 05:08:02;;;;;;;4.63;2.15;;;10.00;99.90;;;;;;5020354;28;20137;-58
2021/10/23 05:10:28;;;;;;;2.78;2.00;;;10.00;99.90;;;;;;5020508;28;20622;-58
2021/10/23 05:12:55;;;;;;;6.30;1.83;;;10.00;99.90;;;;;;5020078;28;20529;-58
2021/10/23 05:15:22;;;;;;;6.40;1.83;;;10.00;99.90;;;;;;5019254;28;20136;-58
2021/10/23 05:17:49;;;;;;;5.93;1.88;;;10.00;99.90;;;;;;5019330;28;20103;-58
2021/10/23 05:20:16;;;;;;;3.80;1.77;;;10.00;99.90;;;;;;5020074;28;20049;-58
2021/10/23 05:22:43;;;;;;;3.40;1.58;;;10.00;99.90;;;;;;5020110;28;20088;-58
2021/10/23 05:25:09;;;;;;;4.13;2.42;;;10.00;99.90;;;;;;5020309;28;20505;-58
2021/10/23 05:27:36;;;;;;;2.47;1.67;;;10.00;99.90;;;;;;5019840;28;20317;-58
2021/10/23 05:30:04;;;;;;;5.38;2.05;;;10.00;99.90;;;;;;5019459;28;20136;-58
2021/10/23 05:32:30;;;;;;;3.22;1.60;;;10.00;99.90;;;;;;5004939;28;20137;-58
2021/10/23 05:34:59;;;;;;;3.67;2.28;;;10.00;99.90;;;;;;5020184;28;20073;-58
2021/10/23 05:37:26;;;;;;;3.45;2.03;;;10.00;99.90;;;;;;5020211;28;20903;-58
2021/10/23 05:39:53;;;;;;;5.95;1.67;;;10.00;99.90;;;;;;5019969;28;20643;-59
2021/10/23 05:42:20;;;;;;;3.45;1.77;;;10.00;99.90;;;;;;5019517;28;20045;-59
2021/10/23 05:44:47;;;;;;;4.72;1.83;;;10.00;99.90;;;;;;5018873;28;20054;-58
2021/10/23 05:47:14;;;;;;;4.20;2.05;;;10.00;99.90;;;;;;5034753;28;20049;-58
2021/10/23 05:49:40;;;;;;;3.08;1.80;;;10.00;99.90;;;;;;5020066;28;20111;-58
2021/10/23 05:52:07;;;;;;;3.60;1.45;;;10.00;99.90;;;;;;5018282;28;20081;-58
2021/10/23 05:54:37;;;;;;;4.10;2.00;;;10.00;99.90;;;;;;5022944;28;20127;-58
2021/10/23 05:57:07;;;;;;;4.78;1.98;;;9.90;99.90;;;;;;5023786;28;20111;-59
2021/10/23 05:59:37;;;;;;;3.88;1.48;;;10.00;99.90;;;;;;5022463;28;20466;-58
2021/10/23 06:04:50;;;;;;;4.18;1.95;;;10.00;99.90;;;;;;5023305;28;20049;-59
2021/10/23 06:07:17;;;;;;;6.15;2.88;;;10.00;99.90;;;;;;5022937;28;20057;-58
2021/10/23 06:09:44;;;;;;;4.30;2.13;;;10.00;99.90;;;;;;5021971;28;20088;-59
2021/10/23 06:12:13;;;;;;;3.22;2.10;;;10.00;99.90;;;;;;5022993;28;20213;-59
2021/10/23 06:14:40;;;;;;;4.78;2.33;;;10.00;99.90;;;;;;5020721;28;20136;-59
2021/10/23 06:17:07;;;;;;;5.65;2.47;;;10.00;99.90;;;;;;5022726;28;20231;-58
2021/10/23 06:19:34;;;;;;;4.65;1.92;;;10.00;99.90;;;;;;5022948;28;20531;-60
2021/10/23 06:22:01;;;;;;;5.50;1.92;;;10.10;99.90;;;;;;5022788;28;20833;-58
2021/10/23 06:24:28;;;;;;;7.63;2.00;;;10.10;99.90;;;;;;5023015;28;20073;-59
2021/10/23 06:26:54;;;;;;;3.60;1.30;;;10.10;99.90;;;;;;5022929;28;20119;-58
2021/10/23 06:29:21;;;;;;;3.08;1.50;;;10.00;99.90;;;;;;5021967;28;20172;-59
2021/10/23 06:31:48;;;;;;;6.80;2.42;;;10.00;99.90;;;;;;5021685;28;20084;-58
2021/10/23 06:34:15;;;;;;;4.63;1.77;;;10.10;99.90;;;;;;5021996;28;20077;-59
2021/10/23 06:36:41;;;;;;;6.70;2.88;;;10.00;99.90;;;;;;5022308;28;20696;-58
2021/10/23 06:39:08;;;;;;;5.15;2.53;;;10.10;99.90;;;;;;5021235;28;20453;-59
2021/10/23 06:41:35;;;;;;;8.52;2.10;;;10.00;99.90;;;;;;5024082;28;20635;-58
2021/10/23 06:44:03;;;;;;;4.10;1.67;;;10.10;99.90;;;;;;5021874;28;20084;-58
2021/10/23 06:46:30;;;;;;;4.25;2.08;;;10.10;99.90;;;;;;5019555;28;20120;-59
2021/10/23 06:48:57;;;;;;;6.03;3.53;;;10.10;99.90;;;;;;5021608;28;20160;-58
2021/10/23 06:51:26;;;;;;;6.95;2.88;;;10.10;99.90;;;;;;5022546;28;20129;-59
2021/10/23 06:53:55;;;;;;;4.30;2.35;;;10.10;99.90;;;;;;5021313;28;20527;-58
2021/10/23 06:56:23;;;;;;;3.90;1.60;;;10.10;99.80;;;;;;5020799;28;20142;-58
2021/10/23 06:58:54;;;;;;;6.68;1.55;;;10.20;99.10;;;;;;5021355;28;20132;-58
2021/10/23 07:01:21;;;;;;;3.15;1.40;;;10.20;98.70;;;;;;5021655;28;20537;-59
2021/10/23 07:03:48;;;;;;;6.60;1.75;;;10.30;98.60;;;;;;5019406;28;20088;-58
2021/10/23 07:06:17;;;;;;;3.20;1.52;;;10.30;99.30;;;;;;5021487;28;20068;-58
2021/10/23 07:08:46;;;;;;;6.22;1.98;;;10.30;99.20;;;;;;5021045;28;20126;-58
2021/10/23 07:11:13;;;;;;;3.90;1.90;;;10.40;99.30;;;;;;5038069;28;20089;-58
2021/10/23 07:13:40;;;;;;;5.85;2.05;;;10.40;98.60;;;;;;5021522;28;20080;-58
2021/10/23 07:16:09;;;;;;;4.70;1.73;;;10.40;98.80;;;;;;5021079;28;20063;-58
2021/10/23 07:18:38;;;;;;;5.05;2.03;;;10.40;99.20;;;;;;5014001;28;20073;-59
2021/10/23 07:21:05;;;;;;;3.95;1.70;;;10.40;99.30;;;;;;5019169;28;20084;-58
2021/10/23 07:23:32;;;;;;;3.20;1.98;;;10.40;99.30;;;;;;5016407;28;20057;-58
2021/10/23 07:25:59;;;;;;;5.38;1.83;;;10.50;99.40;;;;;;5019548;28;20123;-59
2021/10/23 07:28:26;;;;;;;4.30;1.95;;;10.50;99.60;;;;;;5018493;28;20132;-58
2021/10/23 07:30:53;;;;;;;3.45;1.60;;;10.50;99.50;;;;;;5018788;28;20559;-58
2021/10/23 07:33:20;;;;;;;5.72;1.50;;;10.50;98.90;;;;;;5018234;28;20130;-59
2021/10/23 07:35:51;;;;;;;3.10;1.63;;;10.60;98.60;;;;;;5019026;28;20081;-58
2021/10/23 07:38:18;;;;;;;2.63;1.30;;;10.60;98.30;;;;;;5018667;28;20500;-59
2021/10/23 07:40:47;;;;;;;4.43;1.50;;;10.60;98.90;;;;;;5018350;28;20128;-58
2021/10/23 07:43:14;;;;;;;4.45;2.55;;;10.70;98.90;;;;;;5017773;28;20767;-58
2021/10/23 07:45:41;;;;;;;5.18;1.92;;;10.70;98.80;;;;;;5017701;28;20132;-58
2021/10/23 07:48:08;;;;;;;4.47;3.20;;;10.70;98.70;;;;;;5017830;28;20136;-59
2021/10/23 07:50:35;;;;;;;5.72;1.90;;;10.70;98.50;;;;;;5033196;28;20103;-59
2021/10/23 07:53:02;;;;;;;4.32;2.30;;;10.70;97.80;;;;;;5017573;28;20092;-59
2021/10/23 07:55:32;;;;;;;4.80;1.90;;;10.80;98.00;;;;;;5018043;28;20049;-59
2021/10/23 07:58:00;;;;;;;3.60;1.60;;;10.90;98.10;;;;;;5017202;28;20092;-59
2021/10/23 08:00:27;;;;;;;6.97;1.45;;;11.00;97.40;;;;;;5016699;28;20049;-59
2021/10/23 08:02:57;;;;;;;4.78;2.05;;;11.00;97.50;;;;;;5017514;28;20140;-59
2021/10/23 08:05:31;;;;;;;2.40;1.25;;;11.10;97.70;;;;;;5018841;28;20049;-60
2021/10/23 08:07:58;;;;;;;4.32;1.77;;;11.20;97.70;;;;;;5017745;28;20149;-59
2021/10/23 08:10:29;;;;;;;3.28;1.60;;;11.20;97.40;;;;;;5017538;28;20107;-60
2021/10/23 08:12:56;;;;;;;2.97;1.25;;;11.30;97.10;;;;;;5018119;28;20241;-60
2021/10/23 08:15:23;;;;;;;4.32;2.42;;;11.30;97.30;;;;;;5017337;28;20144;-59
2021/10/23 08:17:51;;;;;;;3.75;1.45;;;11.40;96.80;;;;;;5018411;28;20147;-59
2021/10/23 08:20:18;;;;;;;4.85;1.70;;;11.40;96.20;;;;;;5018829;28;20057;-60
2021/10/23 08:22:44;;;;;;;2.50;1.40;;;11.50;95.90;;;;;;5016856;28;20132;-59
2021/10/23 08:25:12;;;;;;;4.03;1.42;;;11.60;95.30;;;;;;5017254;28;20084;-59
2021/10/23 08:27:40;;;;;;;3.60;1.45;;;11.60;95.10;;;;;;5018624;28;20145;-58
2021/10/23 08:30:09;;;;;;;5.93;1.30;;;11.70;94.50;;;;;;5016747;28;20472;-59
2021/10/23 08:32:37;;;;;;;3.70;1.50;;;11.70;94.70;;;;;;5016184;28;20084;-59
2021/10/23 08:35:04;;;;;;;4.85;1.60;;;11.70;94.90;;;;;;5017640;28;20445;-59
2021/10/23 08:37:31;;;;;;;3.25;2.10;;;11.80;94.40;;;;;;5018379;28;20049;-59
2021/10/23 08:39:58;;;;;;;3.25;1.83;;;11.80;94.50;;;;;;5017246;28;20123;-60
2021/10/23 08:42:25;;;;;;;3.42;1.25;;;11.90;94.00;;;;;;5017830;28;20045;-59
2021/10/23 08:44:52;;;;;;;3.83;1.40;;;12.00;93.70;;;;;;5018144;28;21077;-59
2021/10/23 08:47:19;;;;;;;3.25;1.50;;;12.00;93.60;;;;;;5013406;28;20049;-59
2021/10/23 08:49:46;;;;;;;3.92;1.58;;;12.10;94.20;;;;;;5000746;28;20136;-59
2021/10/23 08:52:16;;;;;;;4.43;1.63;;;12.20;93.00;;;;;;5014665;28;20413;-59
2021/10/23 08:54:42;;;;;;;2.53;1.30;;;12.30;93.10;;;;;;5017914;28;20145;-59
2021/10/23 08:57:09;;;;;;;3.55;1.48;;;12.40;92.80;;;;;;5017385;28;20080;-59
2021/10/23 08:59:36;;;;;;;5.30;1.55;;;12.50;92.60;;;;;;5017129;28;20143;-59
2021/10/23 09:02:03;;;;;;;4.93;1.40;;;12.50;92.20;;;;;;5016876;28;20076;-59
2021/10/23 09:04:30;;;;;;;1.80;1.20;;;12.60;92.20;;;;;;5014735;28;20120;-59
2021/10/23 09:07:15;;;;;;;2.35;1.52;;;12.60;92.50;;;;;;5018082;28;20045;-58
2021/10/23 09:09:48;;;;;;;1.98;1.23;;;12.70;90.90;;;;;;5015858;28;20057;-59
2021/10/23 09:12:24;;;;;;;2.08;1.08;;;12.80;90.80;;;;;;5012813;28;20042;-59
2021/10/23 09:15:01;;;;;;;2.47;1.17;;;12.80;90.60;;;;;;5016415;28;20092;-59
2021/10/23 09:17:28;;;;;;;1.65;1.05;;;12.90;89.80;;;;;;5017861;28;20548;-59
2021/10/23 09:19:56;;;;;;;3.78;1.33;;;12.90;90.80;;;;;;5017294;28;20587;-59
2021/10/23 09:22:32;;;;;;;2.42;1.20;;;12.90;89.10;;;;;;5018818;28;20957;-59
2021/10/23 09:25:15;;;;;;;2.33;1.10;;;13.00;87.50;;;;;;5018892;28;20118;-61
2021/10/23 09:27:51;;;;;;;2.00;1.08;;;12.90;85.80;;;;;;5019086;28;20137;-59
2021/10/23 09:30:19;;;;;;;2.45;1.00;;;13.00;85.50;;;;;;5018758;28;20480;-59
2021/10/23 09:32:53;;;;;;;6.43;1.20;;;13.00;87.80;;;;;;5021801;28;20152;-59
2021/10/23 09:35:22;;;;;;;2.28;0.85;;;13.10;85.30;;;;;;5020610;28;20068;-58
2021/10/23 09:37:53;;;;;;;5.28;1.13;;;13.10;87.20;;;;;;5022367;28;20793;-59
2021/10/23 09:40:20;;;;;;;3.67;0.82;;;13.20;84.60;;;;;;5005081;28;20073;-62
2021/10/23 09:43:03;;;;;;;1.70;0.90;;;13.20;83.20;;;;;;5021420;28;20084;-59
2021/10/23 09:45:29;;;;;;;2.03;1.17;;;13.20;84.20;;;;;;5022002;28;20410;-58
2021/10/23 09:48:07;;;;;;;3.45;1.10;;;13.20;83.60;;;;;;5021290;28;20124;-59
2021/10/23 09:50:36;;;;;;;3.50;1.15;;;13.30;78.80;;;;;;5019883;28;20161;-59
2021/10/23 09:53:05;;;;;;;4.30;1.15;;;13.30;81.60;;;;;;5018968;28;20140;-58
2021/10/23 09:55:49;;;;;;;2.13;1.30;;;13.30;80.80;;;;;;5020253;28;20209;-58
2021/10/23 09:58:23;;;;;;;2.65;1.75;;;13.30;82.60;;;;;;5018169;28;20064;-58
2021/10/23 10:00:50;;;;;;;2.85;1.08;;;13.40;80.20;;;;;;5019798;28;20049;-58
2021/10/23 10:03:20;;;;;;;3.00;1.35;;;13.30;82.30;;;;;;5019961;28;20148;-60
2021/10/23 10:05:59;;;;;;;1.88;0.98;;;13.40;82.20;;;;;;5020749;28;20045;-59
2021/10/23 10:08:29;;;;;;;11.90;1.35;;;13.40;78.50;;;;;;5027501;28;20149;-57
2021/10/23 10:10:57;;;;;;;3.55;1.55;;;13.40;81.60;;;;;;5021196;28;20460;-58
2021/10/23 10:13:25;;;;;;;3.63;1.25;;;13.40;81.30;;;;;;5019485;28;20721;-60
2021/10/23 10:15:59;;;;;;;5.03;1.17;;;13.50;82.10;;;;;;5003661;28;20119;-60
2021/10/23 10:18:25;;;;;;;3.58;0.98;;;13.50;79.80;;;;;;5020189;28;20053;-58
2021/10/23 10:20:54;;;;;;;4.43;0.77;;;13.40;78.80;;;;;;5037032;28;20085;-60
2021/10/23 10:23:31;;;;;;;3.53;1.23;;;13.40;80.90;;;;;;5021222;28;20611;-60
2021/10/23 10:26:35;;;;;;;2.05;0.63;;;13.40;77.30;;;;;;5020441;28;20057;-60
2021/10/23 10:29:22;;;;;;;0.95;0.73;;;13.50;76.70;;;;;;5020072;28;20041;-60
2021/10/23 10:31:56;;;;;;;3.10;1.15;;;13.50;77.90;;;;;;5020481;28;20142;-60
2021/10/23 10:37:44;;;;;;;2.38;0.80;;;13.70;77.00;;;;;;5020668;28;20140;-60
2021/10/23 10:42:52;;;;;;;3.08;0.73;;;13.80;78.00;;;;;;5020139;28;20141;-60
2021/10/23 10:45:41;;;;;;;0.88;0.60;;;13.80;76.50;;;;;;5020574;28;20217;-60
2021/10/23 10:48:35;;;;;;;1.88;0.90;;;13.90;78.00;;;;;;5017882;28;20085;-60
2021/10/23 10:51:05;;;;;;;3.30;1.40;;;13.90;74.60;;;;;;5013173;28;20055;-60
2021/10/23 10:53:36;;;;;;;4.30;1.23;;;13.90;78.90;;;;;;5018755;28;20132;-60
2021/10/23 10:56:03;;;;;;;2.97;1.05;;;14.00;80.00;;;;;;5021210;28;20100;-60
2021/10/23 10:58:48;;;;;;;2.92;0.90;;;14.10;80.70;;;;;;5018577;28;20168;-60
2021/10/23 11:01:31;;;;;;;1.73;0.80;;;14.20;78.40;;;;;;5020617;28;20132;-60
2021/10/23 11:03:58;;;;;;;5.28;0.73;;;14.30;76.10;;;;;;5019745;28;20064;-60
2021/10/23 11:06:29;;;;;;;2.33;1.00;;;14.30;76.30;;;;;;5020633;28;20409;-60
2021/10/23 11:09:10;;;;;;;3.55;1.17;;;14.30;77.10;;;;;;5020000;28;20627;-60
2021/10/23 11:11:52;;;;;;;3.95;1.45;;;14.30;75.00;;;;;;5020531;28;20127;-60
2021/10/23 11:14:23;;;;;;;4.07;1.08;;;14.30;76.10;;;;;;5018723;28;20049;-60
2021/10/23 11:16:56;;;;;;;2.60;0.80;;;14.30;76.40;;;;;;5019400;28;20698;-60
2021/10/23 11:19:38;;;;;;;;;;;14.40;76.50;;;;;;5020735;28;20128;-60
2021/10/23 11:22:07;;;;;;;1.73;0.77;;;14.50;74.20;;;;;;5017733;28;20380;-60
2021/10/23 11:24:50;;;;;;;1.77;0.98;;;14.60;76.10;;;;;;5018255;28;20132;-60
2021/10/23 11:27:27;;;;;;;4.60;1.38;;;14.60;73.80;;;;;;5017953;28;20171;-57
2021/10/23 11:30:19;;;;;;;3.15;1.15;;;14.70;76.00;;;;;;5017432;28;20099;-60
2021/10/23 11:32:52;;;;;;;4.30;1.10;;;14.80;76.50;;;;;;5017424;28;20111;-60
2021/10/23 11:35:27;;;;;;;2.28;0.80;;;14.80;76.70;;;;;;5017614;28;20120;-60
2021/10/23 11:37:56;;;;;;;2.05;0.90;;;14.80;75.10;;;;;;5002692;28;20594;-60
2021/10/23 11:40:26;;;;;;;3.92;0.98;;;14.80;75.70;;;;;;5019302;28;20459;-60
2021/10/23 11:42:53;;;;;;;1.83;0.93;;;14.90;76.20;;;;;;5016956;28;20057;-60
2021/10/23 11:45:25;;;;;;;1.15;0.80;;;14.90;76.70;;;;;;5018653;28;20485;-60
2021/10/23 11:48:01;;;;;;;1.35;0.80;;;15.10;76.30;;;;;;5018665;28;20060;-60
2021/10/23 11:50:32;;;;;;;1.95;1.30;;;15.20;74.90;;;;;;5017027;28;20589;-60
2021/10/23 11:53:06;;;;;;;2.40;0.80;;;15.20;73.40;;;;;;5016987;28;20641;-60
2021/10/23 11:55:36;;;;;;;2.03;0.90;;;15.20;73.80;;;;;;5012272;28;20124;-60
2021/10/23 11:58:05;;;;;;;6.70;1.52;;;15.40;75.60;;;;;;5012576;28;20465;-60
2021/10/23 12:00:38;;;;;;;3.05;1.42;;;15.50;73.40;;;;;;5010653;28;20083;-60
2021/10/23 12:03:09;;;;;;;2.30;1.10;;;15.60;72.00;;;;;;5015992;28;20073;-58
2021/10/23 12:05:43;;;;;;;5.03;1.27;;;15.70;72.90;;;;;;5018195;28;20050;-59
2021/10/23 12:08:17;;;;;;;4.03;1.42;;;15.80;75.00;;;;;;5017958;28;20053;-58
2021/10/23 12:11:19;;;;;;;2.22;1.25;;;16.00;75.70;;;;;;5016743;28;20585;-60
2021/10/23 12:13:49;;;;;;;4.57;1.50;;;16.10;71.00;;;;;;5015190;28;20068;-58
2021/10/23 12:16:37;;;;;;;2.38;1.00;;;16.20;72.70;;;;;;5016165;28;20111;-58
2021/10/23 12:19:20;;;;;;;4.55;1.38;;;16.40;72.00;;;;;;5018254;28;20088;-61
2021/10/23 12:21:55;;;;;;;3.35;1.38;;;16.30;70.60;;;;;;5015632;28;20081;-58
2021/10/23 12:24:44;;;;;;;3.70;1.27;;;16.40;73.10;;;;;;5015692;28;20099;-58
2021/10/23 12:27:18;;;;;;;2.40;1.20;;;16.50;70.20;;;;;;5017336;28;20556;-58
2021/10/23 12:29:46;;;;;;;3.40;1.17;;;16.60;69.90;;;;;;5015502;28;20081;-58
2021/10/23 12:32:20;;;;;;;2.15;1.20;;;16.50;70.00;;;;;;5017983;28;20477;-58
2021/10/23 12:34:50;;;;;;;3.70;1.17;;;16.60;69.50;;;;;;5000469;28;20196;-58
2021/10/23 12:37:26;;;;;;;2.88;1.30;;;16.60;69.70;;;;;;5018247;28;20136;-58
2021/10/23 12:40:28;;;;;;;2.88;1.20;;;16.60;67.60;;;;;;5017015;28;20072;-58
2021/10/23 12:43:06;;;;;;;2.97;1.10;;;16.40;66.50;;;;;;5019666;28;20049;-58
2021/10/23 12:45:37;;;;;;;4.47;1.02;;;16.40;68.30;;;;;;4998923;28;20142;-58
2021/10/23 12:48:11;;;;;;;2.53;1.17;;;16.40;69.60;;;;;;5010995;28;20057;-60
2021/10/23 12:50:38;;;;;;;2.17;1.05;;;16.40;71.90;;;;;;5018176;28;20445;-60
2021/10/23 12:53:05;;;;;;;3.97;1.27;;;16.30;71.10;;;;;;5012415;28;20050;-57
2021/10/23 12:55:32;;;;;;;3.88;1.73;;;16.30;71.50;;;;;;5015602;28;20136;-58
2021/10/23 12:57:59;;;;;;;4.57;1.38;;;16.30;71.80;;;;;;5016015;28;20049;-58
2021/10/23 13:00:26;;;;;;;5.57;1.60;;;16.30;70.70;;;;;;5016161;28;20085;-58
2021/10/23 13:02:55;;;;;;;3.85;1.48;;;16.30;72.40;;;;;;5017423;28;20150;-58
2021/10/23 13:05:23;;;;;;;4.40;1.30;;;16.30;72.70;;;;;;5019777;28;20050;-60
2021/10/23 13:07:51;;;;;;;2.67;1.27;;;16.20;71.40;;;;;;5020363;28;20076;-60